createdAt,value
2022-11-24T00:00:45.118Z,4
2022-11-24T00:01:47.769Z,3
2022-11-24T00:02:50.821Z,3
2022-11-24T00:03:54.052Z,2
2022-11-24T00:04:56.688Z,3
2022-11-24T00:05:59.316Z,3
2022-11-24T00:07:01.957Z,4
2022-11-24T00:08:04.586Z,3
2022-11-24T00:09:07.185Z,4
2022-11-24T00:10:09.842Z,4
2022-11-24T00:11:12.529Z,4
2022-11-24T00:12:15.171Z,4
2022-11-24T00:13:17.837Z,3
2022-11-24T00:14:20.456Z,3
2022-11-24T00:15:23.056Z,4
2022-11-24T00:16:25.822Z,3
2022-11-24T00:17:28.678Z,3
2022-11-24T00:18:31.321Z,3
2022-11-24T00:19:33.939Z,3
2022-11-24T00:20:36.553Z,3
2022-11-24T00:21:39.234Z,3
2022-11-24T00:22:41.884Z,3
2022-11-24T00:23:44.516Z,4
2022-11-24T00:24:47.159Z,4
2022-11-24T00:25:49.795Z,3
2022-11-24T00:26:52.529Z,3
2022-11-24T00:27:55.177Z,3
2022-11-24T00:28:57.870Z,3
2022-11-24T00:30:00.497Z,3
2022-11-24T00:31:03.179Z,4
2022-11-24T00:32:06.194Z,3
2022-11-24T00:33:08.810Z,3
2022-11-24T00:34:11.986Z,4
2022-11-24T00:35:14.614Z,3
2022-11-24T00:36:17.281Z,3
2022-11-24T00:37:19.910Z,3
2022-11-24T00:38:22.566Z,3
2022-11-24T00:39:25.197Z,4
2022-11-24T00:40:32.155Z,4
2022-11-24T00:41:37.483Z,4
2022-11-24T00:42:40.120Z,3
2022-11-24T00:43:42.706Z,3
2022-11-24T00:44:45.365Z,3
2022-11-24T00:45:48.159Z,3
2022-11-24T00:46:51.246Z,4
2022-11-24T00:47:54.527Z,4
2022-11-24T00:48:57.145Z,3
2022-11-24T00:49:59.755Z,3
2022-11-24T00:51:02.358Z,3
2022-11-24T00:52:05.003Z,3
2022-11-24T00:53:07.685Z,3
2022-11-24T00:54:10.258Z,3
2022-11-24T00:55:12.864Z,2
2022-11-24T00:56:15.506Z,3
2022-11-24T00:57:18.154Z,4
2022-11-24T00:58:20.843Z,4
2022-11-24T00:59:23.495Z,3
2022-11-24T01:00:26.153Z,4
2022-11-24T01:01:28.877Z,4
2022-11-24T01:02:31.963Z,3
2022-11-24T01:03:34.834Z,4
2022-11-24T01:04:37.681Z,3
2022-11-24T01:05:40.303Z,4
2022-11-24T01:06:42.923Z,4
2022-11-24T01:07:45.549Z,4
2022-11-24T01:08:48.391Z,4
2022-11-24T01:09:51.036Z,4
2022-11-24T01:10:53.648Z,3
2022-11-24T01:11:56.257Z,3
2022-11-24T01:12:58.928Z,3
2022-11-24T01:14:01.590Z,3
2022-11-24T01:15:04.235Z,3
2022-11-24T01:16:06.964Z,3
2022-11-24T01:17:10.160Z,3
2022-11-24T01:18:12.746Z,3
2022-11-24T01:19:15.382Z,4
2022-11-24T01:20:18.069Z,3
2022-11-24T01:21:20.686Z,4
2022-11-24T01:22:23.326Z,4
2022-11-24T01:23:25.930Z,4
2022-11-24T01:24:28.541Z,4
2022-11-24T01:25:31.179Z,4
2022-11-24T01:26:33.804Z,4
2022-11-24T01:27:36.425Z,4
2022-11-24T01:28:43.295Z,4
2022-11-24T01:29:50.154Z,4
2022-11-24T01:30:52.792Z,4
2022-11-24T01:31:55.709Z,4
2022-11-24T01:32:58.328Z,4
2022-11-24T01:34:00.963Z,4
2022-11-24T01:35:03.604Z,4
2022-11-24T01:36:06.213Z,4
2022-11-24T01:37:08.829Z,3
2022-11-24T01:38:11.660Z,4
2022-11-24T01:39:14.299Z,4
2022-11-24T01:40:16.954Z,4
2022-11-24T01:41:20.156Z,3
2022-11-24T01:42:22.777Z,4
2022-11-24T01:43:25.374Z,4
2022-11-24T01:44:28.065Z,3
2022-11-24T01:45:30.717Z,4
2022-11-24T01:46:33.440Z,5
2022-11-24T01:47:36.430Z,4
2022-11-24T01:48:39.671Z,4
2022-11-24T01:49:42.298Z,4
2022-11-24T01:50:44.896Z,4
2022-11-24T01:51:47.527Z,5
2022-11-24T01:52:53.668Z,4
2022-11-24T01:53:59.569Z,4
2022-11-24T01:55:01.915Z,4
2022-11-24T01:56:04.529Z,4
2022-11-24T01:57:07.167Z,4
2022-11-24T01:58:09.822Z,4
2022-11-24T01:59:12.406Z,5
2022-11-24T02:00:15.059Z,4
2022-11-24T02:01:17.764Z,4
2022-11-24T02:02:20.613Z,4
2022-11-24T02:03:23.487Z,4
2022-11-24T02:04:26.094Z,4
2022-11-24T02:05:28.710Z,4
2022-11-24T02:06:31.318Z,4
2022-11-24T02:07:34.044Z,4
2022-11-24T02:08:36.807Z,4
2022-11-24T02:09:39.404Z,6
2022-11-24T02:10:43.551Z,5
2022-11-24T02:11:46.100Z,4
2022-11-24T02:12:48.748Z,4
2022-11-24T02:13:51.380Z,4
2022-11-24T02:14:54.006Z,4
2022-11-24T02:15:56.731Z,4
2022-11-24T02:16:59.643Z,4
2022-11-24T02:18:02.293Z,4
2022-11-24T02:19:04.929Z,4
2022-11-24T02:20:07.555Z,4
2022-11-24T02:21:10.151Z,4
2022-11-24T02:22:12.773Z,5
2022-11-24T02:23:15.397Z,4
2022-11-24T02:24:18.024Z,5
2022-11-24T02:25:20.656Z,5
2022-11-24T02:26:23.277Z,4
2022-11-24T02:27:25.918Z,6
2022-11-24T02:28:28.531Z,4
2022-11-24T02:29:31.184Z,4
2022-11-24T02:30:33.804Z,4
2022-11-24T02:31:36.492Z,4
2022-11-24T02:32:39.385Z,4
2022-11-24T02:33:41.986Z,5
2022-11-24T02:34:44.650Z,4
2022-11-24T02:35:47.258Z,4
2022-11-24T02:36:49.906Z,4
2022-11-24T02:37:52.714Z,5
2022-11-24T02:38:55.324Z,5
2022-11-24T02:39:57.953Z,5
2022-11-24T02:41:00.565Z,5
2022-11-24T02:42:03.158Z,6
2022-11-24T02:43:05.830Z,4
2022-11-24T02:44:08.422Z,5
2022-11-24T02:45:11.021Z,5
2022-11-24T02:46:13.684Z,4
2022-11-24T02:47:16.567Z,4
2022-11-24T02:48:19.238Z,4
2022-11-24T02:49:22.000Z,4
2022-11-24T02:50:24.641Z,5
2022-11-24T02:51:27.255Z,4
2022-11-24T02:52:29.867Z,4
2022-11-24T02:53:32.486Z,5
2022-11-24T02:54:35.475Z,5
2022-11-24T02:55:39.651Z,5
2022-11-24T02:56:42.284Z,5
2022-11-24T02:57:44.856Z,5
2022-11-24T02:58:47.468Z,5
2022-11-24T02:59:50.090Z,5
2022-11-24T03:00:52.896Z,4
2022-11-24T03:01:55.498Z,7
2022-11-24T03:02:58.421Z,6
2022-11-24T03:04:01.296Z,5
2022-11-24T03:05:03.892Z,4
2022-11-24T03:06:06.718Z,4
2022-11-24T03:07:09.380Z,5
2022-11-24T03:08:12.303Z,6
2022-11-24T03:09:14.928Z,5
2022-11-24T03:10:17.546Z,5
2022-11-24T03:11:20.169Z,5
2022-11-24T03:12:22.779Z,5
2022-11-24T03:13:25.342Z,5
2022-11-24T03:14:27.965Z,4
2022-11-24T03:15:30.692Z,4
2022-11-24T03:16:33.622Z,5
2022-11-24T03:17:36.249Z,4
2022-11-24T03:18:38.886Z,5
2022-11-24T03:19:41.541Z,5
2022-11-24T03:20:44.160Z,5
2022-11-24T03:21:46.836Z,7
2022-11-24T03:22:49.459Z,5
2022-11-24T03:23:52.109Z,6
2022-11-24T03:24:54.730Z,5
2022-11-24T03:25:57.335Z,5
2022-11-24T03:27:00.021Z,4
2022-11-24T03:28:02.655Z,5
2022-11-24T03:29:05.289Z,4
2022-11-24T03:30:07.895Z,4
2022-11-24T03:31:10.569Z,6
2022-11-24T03:32:13.398Z,5
2022-11-24T03:33:16.013Z,5
2022-11-24T03:34:18.642Z,7
2022-11-24T03:35:21.321Z,5
2022-11-24T03:36:23.963Z,5
2022-11-24T03:37:26.616Z,5
2022-11-24T03:38:29.247Z,4
2022-11-24T03:39:31.851Z,5
2022-11-24T03:40:34.490Z,6
2022-11-24T03:41:37.143Z,6
2022-11-24T03:42:39.751Z,4
2022-11-24T03:43:44.179Z,6
2022-11-24T03:44:46.921Z,6
2022-11-24T03:45:49.538Z,5
2022-11-24T03:46:52.201Z,7
2022-11-24T03:47:54.828Z,6
2022-11-24T03:48:57.422Z,5
2022-11-24T03:50:00.108Z,7
2022-11-24T03:51:02.758Z,5
2022-11-24T03:52:08.130Z,5
2022-11-24T03:53:10.913Z,4
2022-11-24T03:54:13.563Z,5
2022-11-24T03:55:26.287Z,5
2022-11-24T03:56:28.493Z,6
2022-11-24T03:57:31.061Z,5
2022-11-24T03:58:33.667Z,5
2022-11-24T03:59:36.305Z,5
2022-11-24T04:00:38.903Z,5
2022-11-24T04:01:41.556Z,6
2022-11-24T04:02:44.459Z,4
2022-11-24T04:03:47.410Z,4
2022-11-24T04:04:50.017Z,5
2022-11-24T04:05:52.670Z,5
2022-11-24T04:06:55.320Z,5
2022-11-24T04:07:57.923Z,5
2022-11-24T04:09:00.812Z,4
2022-11-24T04:10:03.424Z,4
2022-11-24T04:11:06.053Z,4
2022-11-24T04:12:08.653Z,5
2022-11-24T04:13:11.259Z,6
2022-11-24T04:14:14.028Z,6
2022-11-24T04:15:16.611Z,5
2022-11-24T04:16:19.274Z,5
2022-11-24T04:17:22.144Z,4
2022-11-24T04:18:24.778Z,4
2022-11-24T04:19:27.403Z,6
2022-11-24T04:20:30.686Z,5
2022-11-24T04:21:33.325Z,5
2022-11-24T04:22:35.927Z,7
2022-11-24T04:23:38.541Z,6
2022-11-24T04:24:41.201Z,6
2022-11-24T04:25:43.875Z,7
2022-11-24T04:26:46.486Z,5
2022-11-24T04:27:49.115Z,6
2022-11-24T04:28:51.738Z,7
2022-11-24T04:29:54.356Z,6
2022-11-24T04:30:57.007Z,6
2022-11-24T04:31:59.780Z,6
2022-11-24T04:33:02.387Z,6
2022-11-24T04:34:05.032Z,7
2022-11-24T04:35:07.659Z,6
2022-11-24T04:36:10.262Z,7
2022-11-24T04:37:12.934Z,6
2022-11-24T04:39:19.301Z,5
2022-11-24T04:39:37.501Z,6
2022-11-24T04:40:40.073Z,5
2022-11-24T04:41:42.637Z,7
2022-11-24T04:42:45.278Z,6
2022-11-24T04:43:47.893Z,6
2022-11-24T04:44:50.528Z,6
2022-11-24T04:45:53.146Z,5
2022-11-24T04:46:55.820Z,6
2022-11-24T04:47:58.709Z,6
2022-11-24T04:49:01.322Z,7
2022-11-24T04:50:03.951Z,8
2022-11-24T04:51:06.598Z,6
2022-11-24T04:52:09.259Z,6
2022-11-24T04:53:11.888Z,8
2022-11-24T04:54:14.540Z,6
2022-11-24T04:55:17.140Z,7
2022-11-24T04:56:19.774Z,7
2022-11-24T04:57:22.390Z,6
2022-11-24T04:58:25.043Z,7
2022-11-24T04:59:27.673Z,6
2022-11-24T05:00:30.280Z,7
2022-11-24T05:01:32.884Z,7
2022-11-24T05:02:35.732Z,7
2022-11-24T05:03:38.292Z,7
2022-11-24T05:04:40.981Z,7
2022-11-24T05:05:43.862Z,6
2022-11-24T05:06:46.466Z,7
2022-11-24T05:07:49.112Z,7
2022-11-24T05:08:51.978Z,7
2022-11-24T05:09:59.156Z,7
2022-11-24T05:11:02.065Z,7
2022-11-24T05:12:04.695Z,7
2022-11-24T05:13:07.332Z,8
2022-11-24T05:14:09.934Z,10
2022-11-24T05:15:12.586Z,8
2022-11-24T05:16:15.262Z,10
2022-11-24T05:17:18.400Z,8
2022-11-24T05:18:21.068Z,7
2022-11-24T05:19:25.376Z,7
2022-11-24T05:20:34.769Z,8
2022-11-24T05:21:37.384Z,6
2022-11-24T05:22:39.979Z,6
2022-11-24T05:23:52.598Z,7
2022-11-24T05:24:54.851Z,9
2022-11-24T05:25:57.516Z,7
2022-11-24T05:27:00.165Z,7
2022-11-24T05:28:02.821Z,8
2022-11-24T05:29:05.460Z,7
2022-11-24T05:30:08.106Z,7
2022-11-24T05:31:10.776Z,6
2022-11-24T05:32:13.566Z,6
2022-11-24T05:33:16.295Z,10
2022-11-24T05:34:18.942Z,7
2022-11-24T05:35:21.535Z,6
2022-11-24T05:36:24.169Z,7
2022-11-24T05:37:26.804Z,8
2022-11-24T05:38:29.452Z,7
2022-11-24T05:39:32.142Z,7
2022-11-24T05:40:34.827Z,7
2022-11-24T05:41:37.455Z,8
2022-11-24T05:42:45.094Z,7
2022-11-24T05:43:50.578Z,7
2022-11-24T05:44:53.144Z,7
2022-11-24T05:45:55.822Z,7
2022-11-24T05:46:58.512Z,7
2022-11-24T05:48:01.391Z,7
2022-11-24T05:49:04.024Z,6
2022-11-24T05:50:06.691Z,6
2022-11-24T05:51:09.635Z,8
2022-11-24T05:52:12.299Z,7
2022-11-24T05:53:15.171Z,7
2022-11-24T05:54:17.778Z,7
2022-11-24T05:55:20.415Z,5
2022-11-24T05:56:23.144Z,6
2022-11-24T05:57:25.853Z,6
2022-11-24T05:58:28.590Z,5
2022-11-24T05:59:31.982Z,6
2022-11-24T06:00:37.331Z,6
2022-11-24T06:01:40.161Z,7
2022-11-24T06:02:43.373Z,8
2022-11-24T06:03:46.436Z,7
2022-11-24T06:04:49.045Z,7
2022-11-24T06:05:52.412Z,7
2022-11-24T06:06:57.481Z,10
2022-11-24T06:07:59.971Z,9
2022-11-24T06:09:02.623Z,7
2022-11-24T06:10:05.245Z,8
2022-11-24T06:11:07.850Z,8
2022-11-24T06:12:10.529Z,7
2022-11-24T06:13:13.229Z,7
2022-11-24T06:14:16.813Z,10
2022-11-24T06:15:19.510Z,7
2022-11-24T06:16:22.236Z,7
2022-11-24T06:17:25.107Z,8
2022-11-24T06:18:27.707Z,8
2022-11-24T06:19:30.350Z,8
2022-11-24T06:20:33.270Z,10
2022-11-24T06:21:35.881Z,8
2022-11-24T06:22:38.507Z,7
2022-11-24T06:23:41.142Z,7
2022-11-24T06:24:43.764Z,7
2022-11-24T06:25:51.348Z,9
2022-11-24T06:26:54.049Z,8
2022-11-24T06:27:56.706Z,8
2022-11-24T06:28:59.387Z,7
2022-11-24T06:30:02.017Z,8
2022-11-24T06:31:04.682Z,8
2022-11-24T06:32:07.416Z,10
2022-11-24T06:33:10.449Z,8
2022-11-24T06:34:13.117Z,8
2022-11-24T06:35:15.779Z,8
2022-11-24T06:36:18.401Z,8
2022-11-24T06:37:21.066Z,7
2022-11-24T06:38:24.428Z,8
2022-11-24T06:39:27.053Z,8
2022-11-24T06:40:29.669Z,7
2022-11-24T06:41:32.321Z,8
2022-11-24T06:42:34.972Z,9
2022-11-24T06:43:37.662Z,8
2022-11-24T06:44:40.356Z,10
2022-11-24T06:45:42.973Z,8
2022-11-24T06:46:45.867Z,8
2022-11-24T06:47:48.531Z,7
2022-11-24T06:48:51.154Z,8
2022-11-24T06:49:53.809Z,8
2022-11-24T06:50:56.462Z,8
2022-11-24T06:51:59.136Z,8
2022-11-24T06:53:01.728Z,8
2022-11-24T06:54:04.351Z,9
2022-11-24T06:55:07.003Z,7
2022-11-24T06:56:15.567Z,7
2022-11-24T06:57:19.244Z,9
2022-11-24T06:58:21.893Z,11
2022-11-24T06:59:24.572Z,13
2022-11-24T07:00:27.221Z,17
2022-11-24T07:01:29.828Z,13
2022-11-24T07:02:38.013Z,10
2022-11-24T07:03:48.493Z,11
2022-11-24T07:04:51.038Z,11
2022-11-24T07:05:53.629Z,7
2022-11-24T07:06:56.268Z,8
2022-11-24T07:07:58.925Z,7
2022-11-24T07:09:01.533Z,9
2022-11-24T07:10:04.238Z,7
2022-11-24T07:11:14.413Z,7
2022-11-24T07:12:18.643Z,7
2022-11-24T07:13:21.126Z,8
2022-11-24T07:14:23.774Z,10
2022-11-24T07:15:26.430Z,11
2022-11-24T07:16:29.224Z,13
2022-11-24T07:17:32.181Z,11
2022-11-24T07:18:34.860Z,12
2022-11-24T07:19:37.524Z,13
2022-11-24T07:20:40.127Z,15
2022-11-24T07:21:42.753Z,20
2022-11-24T07:22:45.404Z,18
2022-11-24T07:23:48.018Z,15
2022-11-24T07:24:50.645Z,14
2022-11-24T07:25:53.259Z,13
2022-11-24T07:26:55.923Z,12
2022-11-24T07:27:58.579Z,10
2022-11-24T07:29:01.201Z,10
2022-11-24T07:30:03.827Z,8
2022-11-24T07:31:06.474Z,8
2022-11-24T07:32:09.241Z,10
2022-11-24T07:33:12.712Z,8
2022-11-24T07:34:15.332Z,9
2022-11-24T07:35:17.957Z,7
2022-11-24T07:36:20.581Z,10
2022-11-24T07:37:26.737Z,9
2022-11-24T07:38:34.182Z,11
2022-11-24T07:39:36.821Z,30
2022-11-24T07:40:39.452Z,31
2022-11-24T07:41:42.103Z,30
2022-11-24T07:42:44.741Z,23
2022-11-24T07:43:48.003Z,24
2022-11-24T07:44:50.624Z,22
2022-11-24T07:45:53.298Z,19
2022-11-24T07:46:56.227Z,20
2022-11-24T07:47:58.930Z,18
2022-11-24T07:49:01.593Z,20
2022-11-24T07:50:04.236Z,20
2022-11-24T07:51:06.858Z,15
2022-11-24T07:52:09.509Z,14
2022-11-24T07:53:12.193Z,11
2022-11-24T07:54:16.356Z,11
2022-11-24T07:55:18.901Z,11
2022-11-24T07:56:21.519Z,11
2022-11-24T07:57:24.679Z,9
2022-11-24T07:58:31.952Z,7
2022-11-24T07:59:35.653Z,7
2022-11-24T08:00:38.289Z,7
2022-11-24T08:01:41.083Z,7
2022-11-24T08:02:44.508Z,7
2022-11-24T08:03:47.242Z,7
2022-11-24T08:04:50.384Z,7
2022-11-24T08:06:16.401Z,7
2022-11-24T08:07:14.952Z,8
2022-11-24T08:08:17.668Z,7
2022-11-24T08:09:20.321Z,7
2022-11-24T08:10:23.522Z,6
2022-11-24T08:11:26.107Z,6
2022-11-24T08:12:28.747Z,5
2022-11-24T08:13:31.363Z,5
2022-11-24T08:14:37.530Z,6
2022-11-24T08:15:39.920Z,6
2022-11-24T08:16:42.709Z,6
2022-11-24T08:17:45.596Z,6
2022-11-24T08:18:48.261Z,6
2022-11-24T08:19:50.945Z,6
2022-11-24T08:20:53.611Z,5
2022-11-24T08:21:56.360Z,4
2022-11-24T08:22:59.005Z,6
2022-11-24T08:24:02.128Z,5
2022-11-24T08:25:04.797Z,5
2022-11-24T08:26:07.463Z,6
2022-11-24T08:27:10.119Z,5
2022-11-24T08:28:12.773Z,7
2022-11-24T08:29:15.417Z,6
2022-11-24T08:30:18.395Z,7
2022-11-24T08:31:21.125Z,5
2022-11-24T08:32:24.147Z,4
2022-11-24T08:33:27.099Z,7
2022-11-24T08:34:29.749Z,6
2022-11-24T08:35:32.436Z,6
2022-11-24T08:36:35.102Z,5
2022-11-24T08:37:37.813Z,5
2022-11-24T08:38:44.016Z,5
2022-11-24T08:39:46.438Z,7
2022-11-24T08:40:49.048Z,7
2022-11-24T08:41:51.733Z,5
2022-11-24T08:42:54.371Z,5
2022-11-24T08:43:57.018Z,6
2022-11-24T08:45:02.391Z,6
2022-11-24T08:46:21.665Z,7
2022-11-24T08:47:24.631Z,6
2022-11-24T08:48:27.256Z,5
2022-11-24T08:49:29.978Z,6
2022-11-24T08:50:32.661Z,6
2022-11-24T08:51:35.437Z,5
2022-11-24T08:52:38.422Z,7
2022-11-24T08:53:41.105Z,6
2022-11-24T08:54:43.802Z,7
2022-11-24T08:55:46.437Z,6
2022-11-24T08:56:49.149Z,7
2022-11-24T08:57:51.825Z,7
2022-11-24T08:58:54.582Z,7
2022-11-24T08:59:57.719Z,7
2022-11-24T09:01:00.564Z,7
2022-11-24T09:02:03.446Z,7
2022-11-24T09:03:06.415Z,7
2022-11-24T09:04:09.166Z,8
2022-11-24T09:05:28.995Z,7
2022-11-24T09:06:34.036Z,7
2022-11-24T09:07:37.296Z,8
2022-11-24T09:08:40.062Z,8
2022-11-24T09:09:42.764Z,7
2022-11-24T09:10:45.413Z,7
2022-11-24T09:11:48.051Z,9
2022-11-24T09:12:50.698Z,7
2022-11-24T09:13:53.371Z,8
2022-11-24T09:14:56.008Z,8
2022-11-24T09:15:58.675Z,8
2022-11-24T09:17:01.598Z,7
2022-11-24T09:18:04.445Z,7
2022-11-24T09:19:07.113Z,8
2022-11-24T09:20:09.758Z,7
2022-11-24T09:21:12.400Z,8
2022-11-24T09:22:15.049Z,7
2022-11-24T09:23:17.733Z,7
2022-11-24T09:24:20.391Z,8
2022-11-24T09:25:23.119Z,8
2022-11-24T09:26:25.750Z,7
2022-11-24T09:27:28.483Z,7
2022-11-24T09:28:31.204Z,7
2022-11-24T09:29:34.077Z,8
2022-11-24T09:30:37.539Z,7
2022-11-24T09:31:40.422Z,7
2022-11-24T09:32:43.057Z,7
2022-11-24T09:33:45.718Z,7
2022-11-24T09:34:48.414Z,6
2022-11-24T09:35:51.067Z,6
2022-11-24T09:36:53.716Z,8
2022-11-24T09:37:56.344Z,10
2022-11-24T09:38:59.147Z,8
2022-11-24T09:40:01.829Z,8
2022-11-24T09:41:04.969Z,7
2022-11-24T09:42:07.665Z,7
2022-11-24T09:43:10.312Z,8
2022-11-24T09:44:12.961Z,7
2022-11-24T09:45:15.652Z,7
2022-11-24T09:46:18.942Z,8
2022-11-24T09:47:21.829Z,8
2022-11-24T09:48:24.642Z,6
2022-11-24T09:49:27.237Z,8
2022-11-24T09:50:29.936Z,10
2022-11-24T09:51:33.078Z,11
2022-11-24T09:52:45.919Z,10
2022-11-24T09:53:48.194Z,8
2022-11-24T09:54:50.915Z,8
2022-11-24T09:55:53.697Z,7
2022-11-24T09:56:56.329Z,6
2022-11-24T09:57:59.063Z,7
2022-11-24T09:59:01.690Z,7
2022-11-24T10:00:04.340Z,8
2022-11-24T10:01:07.054Z,10
2022-11-24T10:02:09.996Z,9
2022-11-24T10:03:12.685Z,8
2022-11-24T10:04:15.600Z,7
2022-11-24T10:05:18.404Z,7
2022-11-24T10:06:21.257Z,7
2022-11-24T10:07:24.002Z,7
2022-11-24T10:08:26.918Z,7
2022-11-24T10:09:29.554Z,8
2022-11-24T10:10:32.277Z,9
2022-11-24T10:11:34.857Z,7
2022-11-24T10:12:37.687Z,8
2022-11-24T10:13:40.403Z,7
2022-11-24T10:14:43.021Z,7
2022-11-24T10:15:45.766Z,7
2022-11-24T10:16:49.449Z,7
2022-11-24T10:17:53.906Z,7
2022-11-24T10:18:56.564Z,6
2022-11-24T10:19:59.213Z,7
2022-11-24T10:21:01.908Z,6
2022-11-24T10:22:05.532Z,7
2022-11-24T10:23:08.259Z,8
2022-11-24T10:24:10.931Z,6
2022-11-24T10:25:13.620Z,7
2022-11-24T10:26:16.333Z,6
2022-11-24T10:27:18.976Z,5
2022-11-24T10:28:21.704Z,7
2022-11-24T10:29:24.356Z,7
2022-11-24T10:30:27.007Z,8
2022-11-24T10:31:29.796Z,7
2022-11-24T10:32:32.699Z,6
2022-11-24T10:33:35.397Z,6
2022-11-24T10:34:38.033Z,8
2022-11-24T10:35:50.681Z,20
2022-11-24T10:36:52.929Z,17
2022-11-24T10:37:55.547Z,9
2022-11-24T10:38:58.176Z,8
2022-11-24T10:40:00.897Z,7
2022-11-24T10:41:03.632Z,7
2022-11-24T10:42:06.348Z,6
2022-11-24T10:43:09.018Z,7
2022-11-24T10:44:11.684Z,7
2022-11-24T10:45:14.325Z,6
2022-11-24T10:46:17.053Z,6
2022-11-24T10:47:20.029Z,7
2022-11-24T10:48:23.100Z,5
2022-11-24T10:49:25.735Z,6
2022-11-24T10:50:28.357Z,6
2022-11-24T10:51:31.085Z,7
2022-11-24T10:52:34.235Z,7
2022-11-24T10:53:36.879Z,6
2022-11-24T10:54:41.419Z,6
2022-11-24T10:55:43.955Z,6
2022-11-24T10:56:46.658Z,10
2022-11-24T10:57:49.392Z,11
2022-11-24T10:58:52.909Z,22
2022-11-24T10:59:55.563Z,23
2022-11-24T11:00:58.872Z,22
2022-11-24T11:02:01.954Z,25
2022-11-24T11:03:05.280Z,23
2022-11-24T11:04:08.481Z,19
2022-11-24T11:05:11.181Z,13
2022-11-24T11:06:13.773Z,10
2022-11-24T11:07:19.087Z,8
2022-11-24T11:08:21.931Z,8
2022-11-24T11:09:24.763Z,10
2022-11-24T11:10:27.400Z,9
2022-11-24T11:11:30.276Z,10
2022-11-24T11:12:43.695Z,11
2022-11-24T11:13:47.587Z,12
2022-11-24T11:14:50.220Z,13
2022-11-24T11:15:52.979Z,14
2022-11-24T11:16:55.823Z,15
2022-11-24T11:17:59.360Z,20
2022-11-24T11:19:01.991Z,20
2022-11-24T11:20:04.922Z,18
2022-11-24T11:21:08.777Z,18
2022-11-24T11:22:11.557Z,20
2022-11-24T11:23:14.288Z,20
2022-11-24T11:24:16.952Z,20
2022-11-24T11:25:19.608Z,17
2022-11-24T11:26:22.291Z,14
2022-11-24T11:27:24.964Z,18
2022-11-24T11:28:27.666Z,13
2022-11-24T11:34:08.225Z,18
2022-11-24T11:34:58.075Z,11
2022-11-24T11:36:00.655Z,8
2022-11-24T11:37:03.256Z,8
2022-11-24T11:38:05.873Z,7
2022-11-24T11:39:08.828Z,7
2022-11-24T11:40:14.255Z,7
2022-11-24T11:41:16.768Z,7
2022-11-24T11:42:38.244Z,8
2022-11-24T11:43:41.358Z,7
2022-11-24T11:44:44.015Z,7
2022-11-24T11:45:46.768Z,6
2022-11-24T11:46:49.567Z,8
2022-11-24T11:47:52.636Z,7
2022-11-24T11:48:55.490Z,8
2022-11-24T11:49:58.393Z,7
2022-11-24T11:51:22.646Z,8
2022-11-24T11:52:22.891Z,9
2022-11-24T11:53:25.470Z,7
2022-11-24T11:54:28.098Z,7
2022-11-24T11:55:30.754Z,7
2022-11-24T11:56:33.424Z,7
2022-11-24T11:57:36.107Z,7
2022-11-24T11:58:39.006Z,5
2022-11-24T11:59:41.709Z,6
2022-11-24T12:00:44.481Z,7
2022-11-24T12:01:47.162Z,7
2022-11-24T12:02:53.258Z,7
2022-11-24T12:03:57.075Z,7
2022-11-24T12:05:00.434Z,6
2022-11-24T12:06:03.117Z,7
2022-11-24T12:07:06.021Z,6
2022-11-24T12:08:10.839Z,4
2022-11-24T12:09:27.207Z,7
2022-11-24T12:10:28.544Z,7
2022-11-24T12:11:35.043Z,5
2022-11-24T12:12:37.692Z,4
2022-11-24T12:13:40.909Z,4
2022-11-24T12:14:43.517Z,4
2022-11-24T12:15:46.238Z,5
2022-11-24T12:16:49.164Z,4
2022-11-24T12:17:51.833Z,5
2022-11-24T12:18:58.578Z,6
2022-11-24T12:20:01.752Z,7
2022-11-24T12:21:04.397Z,8
2022-11-24T12:22:07.039Z,7
2022-11-24T12:23:13.420Z,7
2022-11-24T12:24:16.321Z,7
2022-11-24T12:25:19.272Z,6
2022-11-24T12:26:22.127Z,6
2022-11-24T12:27:24.823Z,6
2022-11-24T12:28:27.514Z,7
2022-11-24T12:29:30.429Z,6
2022-11-24T12:30:33.093Z,5
2022-11-24T12:31:35.892Z,4
2022-11-24T12:32:38.823Z,7
2022-11-24T12:33:43.999Z,10
2022-11-24T12:35:02.216Z,10
2022-11-24T12:36:04.964Z,10
2022-11-24T12:37:07.632Z,8
2022-11-24T12:38:10.274Z,7
2022-11-24T12:39:12.993Z,9
2022-11-24T12:40:15.708Z,7
2022-11-24T12:41:40.236Z,6
2022-11-24T12:42:40.268Z,5
2022-11-24T12:43:43.316Z,4
2022-11-24T12:44:45.943Z,5
2022-11-24T12:45:48.614Z,6
2022-11-24T12:46:51.416Z,4
2022-11-24T12:47:54.309Z,6
2022-11-24T12:48:57.949Z,4
2022-11-24T12:50:00.594Z,6
2022-11-24T12:51:03.292Z,6
2022-11-24T12:52:05.990Z,6
2022-11-24T12:53:08.640Z,7
2022-11-24T12:54:11.305Z,6
2022-11-24T12:55:13.922Z,6
2022-11-24T12:56:16.541Z,5
2022-11-24T12:57:19.243Z,4
2022-11-24T12:58:21.961Z,4
2022-11-24T12:59:24.658Z,4
2022-11-24T13:00:27.366Z,5
2022-11-24T13:01:30.082Z,4
2022-11-24T13:02:33.161Z,4
2022-11-24T13:03:36.537Z,4
2022-11-24T13:04:39.151Z,4
2022-11-24T13:05:41.815Z,5
2022-11-24T13:06:48.978Z,4
2022-11-24T13:07:52.139Z,4
2022-11-24T13:09:05.071Z,4
2022-11-24T13:10:07.330Z,4
2022-11-24T13:11:09.966Z,4
2022-11-24T13:12:12.595Z,5
2022-11-24T13:13:15.243Z,4
2022-11-24T13:14:17.891Z,6
2022-11-24T13:15:43.784Z,6
2022-11-24T13:17:06.051Z,6
2022-11-24T13:18:12.270Z,4
2022-11-24T13:19:15.372Z,4
2022-11-24T13:20:17.975Z,5
2022-11-24T13:21:20.592Z,5
2022-11-24T13:22:23.380Z,5
2022-11-24T13:23:26.018Z,4
2022-11-24T13:24:28.875Z,4
2022-11-24T13:25:32.238Z,5
2022-11-24T13:26:42.399Z,4
2022-11-24T13:27:44.693Z,4
2022-11-24T13:29:01.654Z,4
2022-11-24T13:30:09.791Z,4
2022-11-24T13:31:12.617Z,4
2022-11-24T13:32:15.505Z,4
2022-11-24T13:33:19.562Z,4
2022-11-24T13:34:29.636Z,4
2022-11-24T13:35:32.267Z,4
2022-11-24T13:36:35.173Z,4
2022-11-24T13:37:37.827Z,4
2022-11-24T13:38:40.474Z,4
2022-11-24T13:39:47.432Z,5
2022-11-24T13:41:13.213Z,4
2022-11-24T13:42:41.336Z,4
2022-11-24T13:43:36.605Z,4
2022-11-24T13:44:39.371Z,4
2022-11-24T13:45:42.081Z,4
2022-11-24T13:46:44.793Z,4
2022-11-24T13:47:47.581Z,4
2022-11-24T13:48:50.274Z,4
2022-11-24T13:49:52.900Z,4
2022-11-24T13:50:56.131Z,5
2022-11-24T13:51:58.800Z,4
2022-11-24T13:53:01.497Z,4
2022-11-24T13:54:04.157Z,4
2022-11-24T13:55:11.306Z,5
2022-11-24T13:56:14.389Z,5
2022-11-24T13:57:17.050Z,4
2022-11-24T13:58:19.815Z,4
2022-11-24T13:59:22.454Z,6
2022-11-24T14:00:25.108Z,7
2022-11-24T14:01:27.781Z,8
2022-11-24T14:02:31.017Z,11
2022-11-24T14:03:33.816Z,11
2022-11-24T14:04:37.122Z,11
2022-11-24T14:05:39.801Z,10
2022-11-24T14:06:42.539Z,11
2022-11-24T14:07:45.315Z,13
2022-11-24T14:08:48.167Z,13
2022-11-24T14:09:50.891Z,13
2022-11-24T14:10:53.505Z,20
2022-11-24T14:11:56.157Z,23
2022-11-24T14:12:58.734Z,22
2022-11-24T14:14:01.971Z,13
2022-11-24T14:15:04.602Z,8
2022-11-24T14:16:07.307Z,5
2022-11-24T14:17:10.244Z,4
2022-11-24T14:18:12.854Z,4
2022-11-24T14:19:15.503Z,4
2022-11-24T14:20:18.415Z,4
2022-11-24T14:21:21.170Z,4
2022-11-24T14:22:23.999Z,4
2022-11-24T14:23:26.689Z,4
2022-11-24T14:24:29.321Z,5
2022-11-24T14:25:32.426Z,4
2022-11-24T14:26:35.086Z,4
2022-11-24T14:27:37.763Z,4
2022-11-24T14:28:40.462Z,4
2022-11-24T14:29:44.046Z,4
2022-11-24T14:30:46.693Z,4
2022-11-24T14:31:49.324Z,4
2022-11-24T14:32:52.227Z,4
2022-11-24T14:33:54.890Z,6
2022-11-24T14:34:57.829Z,5
2022-11-24T14:36:00.876Z,4
2022-11-24T14:37:03.720Z,4
2022-11-24T14:38:06.379Z,4
2022-11-24T14:39:09.054Z,5
2022-11-24T14:40:11.747Z,4
2022-11-24T14:41:14.635Z,4
2022-11-24T14:42:17.309Z,4
2022-11-24T14:43:19.924Z,4
2022-11-24T14:44:22.608Z,4
2022-11-24T14:45:25.508Z,4
2022-11-24T14:46:28.216Z,4
2022-11-24T14:47:32.195Z,7
2022-11-24T14:48:35.323Z,6
2022-11-24T14:49:37.949Z,7
2022-11-24T14:50:40.697Z,6
2022-11-24T14:51:43.650Z,7
2022-11-24T14:52:46.313Z,7
2022-11-24T14:53:48.979Z,7
2022-11-24T14:54:51.823Z,7
2022-11-24T14:55:54.491Z,7
2022-11-24T14:56:57.170Z,7
2022-11-24T14:57:59.908Z,10
2022-11-24T14:59:02.731Z,8
2022-11-24T15:00:05.442Z,8
2022-11-24T15:01:08.180Z,7
2022-11-24T15:02:11.149Z,8
2022-11-24T15:03:14.548Z,7
2022-11-24T15:04:32.747Z,6
2022-11-24T15:05:39.082Z,6
2022-11-24T15:06:41.699Z,4
2022-11-24T15:07:44.467Z,5
2022-11-24T15:08:47.342Z,4
2022-11-24T15:09:53.725Z,4
2022-11-24T15:10:56.142Z,4
2022-11-24T15:11:58.780Z,4
2022-11-24T15:13:01.454Z,4
2022-11-24T15:14:04.078Z,6
2022-11-24T15:15:06.726Z,4
2022-11-24T15:16:09.466Z,4
2022-11-24T15:17:12.540Z,5
2022-11-24T15:18:15.192Z,5
2022-11-24T15:19:17.823Z,5
2022-11-24T15:20:20.494Z,5
2022-11-24T15:21:23.163Z,5
2022-11-24T15:22:25.790Z,5
2022-11-24T15:23:28.480Z,4
2022-11-24T15:24:31.136Z,5
2022-11-24T15:25:33.909Z,6
2022-11-24T15:26:41.588Z,7
2022-11-24T15:27:44.734Z,6
2022-11-24T15:28:47.350Z,7
2022-11-24T15:29:50.019Z,8
2022-11-24T15:30:52.675Z,7
2022-11-24T15:31:55.358Z,7
2022-11-24T15:32:58.161Z,6
2022-11-24T15:34:00.837Z,6
2022-11-24T15:35:03.487Z,6
2022-11-24T15:36:06.145Z,10
2022-11-24T15:37:08.793Z,11